createdAt,value
2018-08-30T00:02:11.674Z,0.30
2018-08-30T00:04:40.223Z,0.10
2018-08-30T00:07:08.894Z,0.17
2018-08-30T00:09:37.395Z,0.10
2018-08-30T00:12:06.118Z,0.10
2018-08-30T00:14:34.738Z,0.20
2018-08-30T00:17:03.379Z,0.40
2018-08-30T00:19:31.969Z,0.10
2018-08-30T00:22:00.579Z,0.13
2018-08-30T00:24:29.190Z,0.27
2018-08-30T00:26:57.816Z,0.10
2018-08-30T00:29:26.507Z,0.10
2018-08-30T00:31:55.145Z,0.30
2018-08-30T00:34:23.758Z,0.10
2018-08-30T00:36:52.278Z,0.20
2018-08-30T00:39:21.812Z,0.20
2018-08-30T00:41:50.423Z,0.10
2018-08-30T00:44:19.102Z,0.40
2018-08-30T00:46:47.658Z,0.23
2018-08-30T00:49:16.250Z,0.10
2018-08-30T00:51:44.835Z,0.10
2018-08-30T00:54:13.433Z,0.13
2018-08-30T00:56:41.986Z,0.20
2018-08-30T00:59:10.558Z,0.10
2018-08-30T01:01:39.202Z,0.20
2018-08-30T01:04:07.863Z,0.33
2018-08-30T01:06:36.502Z,0.83
2018-08-30T01:09:06.535Z,0.10
2018-08-30T01:11:35.178Z,0.50
2018-08-30T01:14:03.819Z,0.20
2018-08-30T01:16:32.741Z,0.90
2018-08-30T01:19:01.414Z,0.60
2018-08-30T01:21:30.206Z,1.20
2018-08-30T01:23:58.875Z,1.10
2018-08-30T01:26:27.499Z,1.03
2018-08-30T01:28:56.290Z,1.30
2018-08-30T01:31:24.946Z,1.47
2018-08-30T01:33:53.570Z,1.87
2018-08-30T01:36:22.254Z,1.87
2018-08-30T01:38:50.929Z,1.23
2018-08-30T01:41:19.946Z,1.20
2018-08-30T01:43:48.503Z,1.37
2018-08-30T01:46:17.212Z,1.60
2018-08-30T01:48:45.807Z,1.10
2018-08-30T01:51:14.414Z,1.00
2018-08-30T01:53:42.987Z,1.20
2018-08-30T01:56:11.660Z,1.33
2018-08-30T01:58:40.360Z,1.40
2018-08-30T02:01:09.101Z,0.90
2018-08-30T02:03:37.705Z,1.00
2018-08-30T02:06:06.328Z,1.10
2018-08-30T02:08:34.863Z,1.30
2018-08-30T02:11:03.472Z,1.07
2018-08-30T02:13:32.084Z,1.60
2018-08-30T02:16:00.738Z,1.40
2018-08-30T02:18:29.358Z,1.07
2018-08-30T02:20:57.858Z,1.10
2018-08-30T02:23:26.527Z,1.30
2018-08-30T02:25:55.187Z,1.27
2018-08-30T02:28:23.884Z,0.97
2018-08-30T02:30:52.500Z,1.20
2018-08-30T02:33:21.290Z,0.47
2018-08-30T02:35:49.855Z,1.73
2018-08-30T02:38:18.478Z,0.80
2018-08-30T02:40:47.126Z,1.17
2018-08-30T02:43:15.724Z,1.50
2018-08-30T02:45:44.361Z,0.90
2018-08-30T02:48:12.979Z,1.10
2018-08-30T02:50:41.583Z,0.73
2018-08-30T02:53:10.357Z,1.10
2018-08-30T02:55:38.962Z,0.97
2018-08-30T02:58:07.520Z,1.20
2018-08-30T03:00:36.143Z,1.77
2018-08-30T03:03:04.796Z,0.63
2018-08-30T03:05:33.423Z,1.27
2018-08-30T03:08:02.014Z,1.10
2018-08-30T03:10:30.690Z,1.00
2018-08-30T03:12:59.254Z,1.07
2018-08-30T03:15:27.899Z,1.40
2018-08-30T03:17:56.563Z,1.30
2018-08-30T03:20:25.282Z,0.97
2018-08-30T03:22:53.984Z,1.23
2018-08-30T03:25:22.548Z,0.70
2018-08-30T03:27:51.273Z,1.53
2018-08-30T03:30:19.984Z,1.00
2018-08-30T03:32:48.503Z,1.30
2018-08-30T03:35:17.163Z,1.57
2018-08-30T03:37:45.741Z,1.00
2018-08-30T03:40:14.420Z,1.23
2018-08-30T03:42:42.970Z,1.00
2018-08-30T03:45:11.629Z,1.17
2018-08-30T03:47:40.229Z,1.13
2018-08-30T03:50:08.943Z,0.87
2018-08-30T03:52:37.529Z,0.97
2018-08-30T03:55:06.176Z,0.87
2018-08-30T03:57:34.786Z,0.83
2018-08-30T04:00:03.456Z,0.27
2018-08-30T04:02:32.022Z,0.30
2018-08-30T04:05:00.708Z,0.20
2018-08-30T04:07:29.382Z,0.20
2018-08-30T04:09:57.979Z,0.20
2018-08-30T04:12:26.554Z,0.27
2018-08-30T04:14:55.190Z,0.30
2018-08-30T04:17:23.816Z,0.40
2018-08-30T04:19:52.480Z,0.20
2018-08-30T04:22:21.189Z,0.20
2018-08-30T04:24:49.840Z,0.33
2018-08-30T04:27:18.506Z,0.20
2018-08-30T04:29:47.034Z,0.23
2018-08-30T04:32:15.716Z,0.73
2018-08-30T04:34:44.259Z,0.10
2018-08-30T04:37:13.614Z,0.47
2018-08-30T04:39:42.234Z,0.50
2018-08-30T04:42:11.083Z,0.10
2018-08-30T04:44:39.700Z,1.33
2018-08-30T04:47:08.480Z,0.30
2018-08-30T04:49:37.112Z,1.00
2018-08-30T04:52:05.717Z,0.20
2018-08-30T04:54:34.888Z,0.30
2018-08-30T04:57:07.527Z,0.10
2018-08-30T04:59:36.197Z,0.10
2018-08-30T05:02:04.832Z,0.20
2018-08-30T05:04:33.601Z,0.40
2018-08-30T05:07:02.235Z,0.20
2018-08-30T05:09:30.967Z,0.20
2018-08-30T05:11:59.556Z,0.30
2018-08-30T05:14:28.219Z,0.40
2018-08-30T05:16:57.207Z,0.30
2018-08-30T05:19:25.872Z,0.20
2018-08-30T05:21:54.513Z,0.83
2018-08-30T05:24:23.192Z,0.13
2018-08-30T05:26:51.888Z,0.10
2018-08-30T05:29:20.503Z,0.30
2018-08-30T05:31:49.017Z,0.30
2018-08-30T05:34:17.554Z,0.50
2018-08-30T05:36:46.060Z,0.17
2018-08-30T05:39:19.776Z,0.40
2018-08-30T05:41:48.337Z,0.10
2018-08-30T05:44:16.851Z,0.70
2018-08-30T05:46:45.351Z,0.40
2018-08-30T05:49:13.884Z,0.30
2018-08-30T05:51:42.991Z,0.30
2018-08-30T05:54:11.491Z,0.20
2018-08-30T05:56:40.044Z,0.47
2018-08-30T05:59:08.543Z,0.47
2018-08-30T06:01:37.104Z,0.30
2018-08-30T06:04:05.595Z,0.20
2018-08-30T06:06:34.167Z,0.60
2018-08-30T06:09:02.730Z,0.17
2018-08-30T06:11:31.276Z,0.30
2018-08-30T06:13:59.755Z,0.20
2018-08-30T06:16:28.315Z,0.20
2018-08-30T06:18:56.793Z,0.30
2018-08-30T06:21:25.327Z,0.40
2018-08-30T06:23:53.878Z,0.10
2018-08-30T06:26:22.384Z,0.47
2018-08-30T06:28:50.990Z,0.50
2018-08-30T06:31:19.942Z,0.30
2018-08-30T06:33:48.451Z,0.27
2018-08-30T06:36:17.001Z,0.30
2018-08-30T06:38:45.626Z,0.57
2018-08-30T06:41:14.078Z,0.50
2018-08-30T06:43:42.559Z,0.37
2018-08-30T06:46:11.020Z,0.40
2018-08-30T06:48:39.589Z,0.10
2018-08-30T06:51:08.017Z,0.50
2018-08-30T06:53:36.543Z,0.27
2018-08-30T06:56:05.031Z,0.20
2018-08-30T06:58:33.621Z,0.43
2018-08-30T07:01:02.060Z,0.10
2018-08-30T07:03:30.542Z,0.30
2018-08-30T07:05:59.014Z,0.53
2018-08-30T07:08:27.526Z,0.10
2018-08-30T07:10:56.009Z,0.20
2018-08-30T07:13:24.545Z,0.20
2018-08-30T07:15:53.066Z,0.17
2018-08-30T07:18:22.610Z,0.60
2018-08-30T07:20:51.078Z,0.20
2018-08-30T07:23:19.598Z,0.13
2018-08-30T07:25:48.078Z,0.10
2018-08-30T07:28:16.894Z,0.10
2018-08-30T07:30:45.363Z,0.10
2018-08-30T07:33:13.859Z,0.53
2018-08-30T07:35:42.366Z,0.10
2018-08-30T07:38:10.879Z,0.20
2018-08-30T07:40:39.347Z,0.40
2018-08-30T07:43:07.907Z,0.00
2018-08-30T07:45:36.475Z,0.10
2018-08-30T07:48:05.013Z,0.10
2018-08-30T07:50:33.501Z,0.10
2018-08-30T07:53:03.567Z,0.10
2018-08-30T07:55:32.113Z,0.67
2018-08-30T07:58:00.739Z,0.30
2018-08-30T08:00:29.564Z,0.03
2018-08-30T08:02:58.063Z,0.10
2018-08-30T08:08:16.997Z,0.10
2018-08-30T08:10:45.803Z,0.20
2018-08-30T08:13:14.342Z,0.10
2018-08-30T08:15:42.862Z,0.10
2018-08-30T08:18:11.366Z,0.10
2018-08-30T08:20:39.919Z,0.10
2018-08-30T08:23:08.402Z,0.10
2018-08-30T08:25:37.094Z,0.10
2018-08-30T08:28:05.610Z,0.10
2018-08-30T08:30:34.146Z,0.20
2018-08-30T08:33:02.645Z,0.10
2018-08-30T08:35:31.196Z,0.10
2018-08-30T08:37:59.727Z,0.03
2018-08-30T08:40:28.239Z,0.10
2018-08-30T08:42:56.722Z,0.10
2018-08-30T08:45:25.260Z,0.13
2018-08-30T08:47:53.781Z,0.10
2018-08-30T08:50:22.290Z,0.20
2018-08-30T08:52:51.106Z,0.10
2018-08-30T08:55:19.634Z,0.10
2018-08-30T08:57:48.172Z,0.10
2018-08-30T09:00:16.759Z,0.10
2018-08-30T09:02:45.329Z,0.10
2018-08-30T09:05:14.002Z,0.17
2018-08-30T09:07:42.641Z,0.10
2018-08-30T09:10:11.126Z,0.10
2018-08-30T09:12:39.684Z,0.10
2018-08-30T09:15:08.232Z,0.10
2018-08-30T09:17:37.188Z,0.10
2018-08-30T09:20:06.605Z,0.10
2018-08-30T09:22:35.243Z,0.10
2018-08-30T09:25:03.820Z,0.10
2018-08-30T09:27:32.396Z,0.10
2018-08-30T09:30:01.104Z,0.00
2018-08-30T09:32:29.735Z,0.10
2018-08-30T09:34:58.305Z,0.10
2018-08-30T09:37:26.872Z,0.10
2018-08-30T09:39:55.406Z,0.10
2018-08-30T09:42:23.913Z,0.10
2018-08-30T09:44:52.456Z,0.17
2018-08-30T09:47:20.989Z,0.03
2018-08-30T09:49:49.655Z,0.10
2018-08-30T09:52:18.147Z,0.10
2018-08-30T09:54:47.657Z,0.10
2018-08-30T09:57:16.583Z,0.00
2018-08-30T09:59:44.838Z,0.10
2018-08-30T10:02:49.254Z,0.00
2018-08-30T10:05:18.179Z,0.00
2018-08-30T10:07:46.727Z,0.08
2018-08-30T10:10:15.343Z,0.00
2018-08-30T10:12:43.871Z,0.37
2018-08-30T10:15:13.094Z,0.00
2018-08-30T10:17:41.667Z,0.00
2018-08-30T10:20:10.273Z,0.00
2018-08-30T10:22:38.775Z,0.17
2018-08-30T10:25:07.579Z,0.00
2018-08-30T10:27:36.243Z,0.20
2018-08-30T10:30:04.899Z,0.00
2018-08-30T10:32:33.433Z,0.00
2018-08-30T10:35:02.589Z,0.00
2018-08-30T10:37:31.139Z,0.00
2018-08-30T10:39:59.700Z,0.10
2018-08-30T10:42:28.323Z,0.10
2018-08-30T10:44:56.863Z,0.00
2018-08-30T10:47:25.424Z,0.25
2018-08-30T10:49:54.036Z,0.00
2018-08-30T10:52:22.593Z,0.00
2018-08-30T10:54:51.088Z,0.00
2018-08-30T10:57:19.635Z,0.00
2018-08-30T10:59:48.179Z,0.23
2018-08-30T11:02:16.856Z,0.10
2018-08-30T11:04:45.544Z,0.00
2018-08-30T11:07:14.137Z,0.10
2018-08-30T11:09:42.684Z,0.10
2018-08-30T11:12:11.327Z,0.00
2018-08-30T11:14:39.824Z,0.00
2018-08-30T11:17:08.412Z,0.00
2018-08-30T11:19:36.903Z,0.00
2018-08-30T11:22:05.497Z,0.10
2018-08-30T11:24:34.087Z,0.00
2018-08-30T11:27:02.996Z,0.00
2018-08-30T11:29:31.575Z,0.00
2018-08-30T11:32:00.174Z,0.13
2018-08-30T11:34:28.806Z,0.00
2018-08-30T11:36:57.415Z,0.00
2018-08-30T11:39:25.949Z,0.00
2018-08-30T11:41:54.464Z,0.00
2018-08-30T11:44:22.970Z,0.17
2018-08-30T11:46:51.537Z,0.00
2018-08-30T11:49:20.087Z,0.10
2018-08-30T11:51:48.587Z,0.05
2018-08-30T11:54:17.236Z,0.00
2018-08-30T11:56:45.686Z,0.00
2018-08-30T11:59:14.265Z,0.00
2018-08-30T12:01:42.818Z,0.00
2018-08-30T12:04:11.650Z,0.03
2018-08-30T12:06:40.365Z,0.00
2018-08-30T12:09:10.032Z,0.00
2018-08-30T12:11:39.770Z,0.20
2018-08-30T12:14:08.258Z,0.20
2018-08-30T12:16:36.824Z,0.00
2018-08-30T12:19:06.046Z,0.03
2018-08-30T12:21:34.538Z,0.00
2018-08-30T12:24:03.104Z,0.00
2018-08-30T12:26:31.712Z,0.00
2018-08-30T12:29:00.404Z,0.00
2018-08-30T12:31:28.997Z,0.00
2018-08-30T12:33:57.512Z,0.20
2018-08-30T12:36:26.185Z,0.00
2018-08-30T12:38:54.712Z,0.00
2018-08-30T12:41:23.241Z,0.05
2018-08-30T12:43:51.951Z,0.00
2018-08-30T12:46:20.408Z,0.00
2018-08-30T12:48:48.906Z,0.00
2018-08-30T12:51:17.797Z,0.08
2018-08-30T12:53:46.139Z,0.00
2018-08-30T12:56:14.771Z,0.10
2018-08-30T12:58:43.399Z,0.10
2018-08-30T13:01:11.943Z,0.00
2018-08-30T13:03:40.431Z,0.30
2018-08-30T13:06:09.173Z,0.10
2018-08-30T13:08:37.662Z,0.00
2018-08-30T13:11:06.735Z,0.10
2018-08-30T13:13:34.968Z,0.00
2018-08-30T13:16:03.686Z,0.10
2018-08-30T13:18:32.242Z,0.00
2018-08-30T13:21:01.013Z,0.08
2018-08-30T13:23:29.381Z,0.00
2018-08-30T13:25:57.932Z,0.10
2018-08-30T13:28:26.689Z,0.20
2018-08-30T13:30:55.237Z,0.10
2018-08-30T13:33:23.988Z,0.10
2018-08-30T13:35:52.326Z,0.10
2018-08-30T13:38:20.975Z,0.00
2018-08-30T13:40:49.759Z,0.10
2018-08-30T13:43:18.016Z,0.10
2018-08-30T13:45:46.433Z,0.03
2018-08-30T13:48:14.982Z,0.10
2018-08-30T13:50:43.789Z,0.30
2018-08-30T13:53:12.203Z,0.10
2018-08-30T13:55:40.947Z,0.10
2018-08-30T13:58:09.261Z,0.00
2018-08-30T14:00:38.116Z,0.00
2018-08-30T14:03:06.388Z,0.10
2018-08-30T14:05:35.049Z,0.10
2018-08-30T14:08:03.626Z,0.10
2018-08-30T14:10:32.054Z,0.10
2018-08-30T14:13:00.702Z,0.00
2018-08-30T14:15:29.225Z,0.10
2018-08-30T14:17:57.526Z,0.30
2018-08-30T14:20:26.103Z,0.20
2018-08-30T14:22:54.693Z,0.10
2018-08-30T14:25:23.255Z,0.10
2018-08-30T14:27:51.850Z,0.00
2018-08-30T14:30:20.438Z,0.10
2018-08-30T14:32:49.031Z,0.20
2018-08-30T14:35:17.539Z,0.20
2018-08-30T14:37:46.165Z,0.10
2018-08-30T14:40:14.906Z,0.10
2018-08-30T14:42:43.461Z,0.00
2018-08-30T14:45:12.116Z,0.10
2018-08-30T14:47:40.905Z,0.10
2018-08-30T14:50:09.526Z,0.00
2018-08-30T14:52:38.080Z,0.40
2018-08-30T14:55:07.059Z,0.10
2018-08-30T14:57:35.760Z,0.40
2018-08-30T15:00:04.564Z,0.17
2018-08-30T15:02:33.087Z,0.23
2018-08-30T15:05:02.255Z,0.10
2018-08-30T15:07:30.796Z,0.10
2018-08-30T15:09:59.380Z,0.10
2018-08-30T15:12:28.104Z,0.10
2018-08-30T15:14:56.468Z,0.10
2018-08-30T15:17:25.106Z,0.13
2018-08-30T15:19:53.812Z,0.10
2018-08-30T15:22:22.406Z,0.07
2018-08-30T15:24:51.027Z,0.10
2018-08-30T15:27:19.740Z,0.20
2018-08-30T15:29:48.203Z,0.20
2018-08-30T15:32:16.909Z,0.27
2018-08-30T15:34:45.507Z,0.10
2018-08-30T15:37:14.224Z,0.10
2018-08-30T15:39:42.795Z,0.20
2018-08-30T15:42:11.452Z,0.50
2018-08-30T15:44:40.048Z,0.10
2018-08-30T15:47:08.723Z,0.10
2018-08-30T15:49:37.412Z,0.10
2018-08-30T15:52:06.243Z,0.70
2018-08-30T15:54:34.947Z,0.53
2018-08-30T15:57:03.606Z,0.10
2018-08-30T15:59:32.179Z,0.10
2018-08-30T16:02:03.655Z,0.10
2018-08-30T16:04:32.312Z,0.13
2018-08-30T16:07:00.909Z,0.10
2018-08-30T16:09:29.619Z,0.40
2018-08-30T16:11:58.165Z,0.10
2018-08-30T16:14:26.811Z,0.10
2018-08-30T16:16:55.395Z,0.10
2018-08-30T16:19:24.075Z,0.10
2018-08-30T16:21:52.660Z,0.10
2018-08-30T16:24:21.291Z,0.20
2018-08-30T16:26:49.848Z,0.10
2018-08-30T16:29:18.563Z,0.10
2018-08-30T16:31:47.091Z,0.40
2018-08-30T16:34:15.683Z,0.10
2018-08-30T16:36:44.303Z,0.10
2018-08-30T16:39:13.175Z,0.40
2018-08-30T16:41:41.860Z,0.10
2018-08-30T16:44:10.553Z,0.30
2018-08-30T16:46:39.114Z,0.10
2018-08-30T16:49:08.098Z,0.50
2018-08-30T16:51:36.676Z,0.10
2018-08-30T16:54:05.310Z,0.30
2018-08-30T16:56:33.890Z,0.20
2018-08-30T16:59:02.473Z,0.10
2018-08-30T17:01:31.006Z,0.10
2018-08-30T17:03:59.734Z,0.10
2018-08-30T17:06:28.721Z,0.10
2018-08-30T17:08:57.299Z,0.10
2018-08-30T17:11:26.128Z,0.47
2018-08-30T17:13:54.662Z,0.10
2018-08-30T17:16:23.294Z,0.10
2018-08-30T17:18:53.595Z,0.10
2018-08-30T17:21:22.243Z,0.10
2018-08-30T17:23:50.806Z,0.10
2018-08-30T17:26:19.484Z,0.10
2018-08-30T17:28:48.102Z,0.10
2018-08-30T17:31:16.764Z,0.10
2018-08-30T17:33:45.349Z,0.43
2018-08-30T17:36:14.010Z,0.10
2018-08-30T17:38:42.719Z,0.20
2018-08-30T17:41:11.462Z,0.13
2018-08-30T17:43:40.163Z,0.10
2018-08-30T17:46:08.807Z,0.20
2018-08-30T17:48:37.477Z,0.20
2018-08-30T17:51:06.172Z,0.20
2018-08-30T17:53:34.810Z,0.10
2018-08-30T17:56:03.521Z,0.20
2018-08-30T17:58:32.306Z,0.20
2018-08-30T18:01:00.932Z,0.10
2018-08-30T18:03:29.516Z,0.30
2018-08-30T18:05:58.102Z,0.10
2018-08-30T18:08:26.676Z,0.20
2018-08-30T18:10:55.247Z,0.10
2018-08-30T18:13:23.854Z,0.10
2018-08-30T18:15:52.431Z,0.10
2018-08-30T18:18:21.066Z,0.10
2018-08-30T18:20:49.652Z,0.17
2018-08-30T18:23:18.234Z,0.23
2018-08-30T18:25:46.782Z,0.20
2018-08-30T18:28:15.452Z,0.67
2018-08-30T18:30:44.042Z,0.60
2018-08-30T18:33:12.686Z,0.70
2018-08-30T18:35:41.270Z,0.10
2018-08-30T18:38:09.789Z,0.20
2018-08-30T18:40:38.382Z,0.30
2018-08-30T18:43:06.974Z,0.30
2018-08-30T18:45:35.568Z,0.53
2018-08-30T18:48:04.116Z,0.33
2018-08-30T18:50:32.726Z,0.37
2018-08-30T18:53:01.299Z,0.40
2018-08-30T18:55:29.900Z,0.40
2018-08-30T18:57:58.459Z,0.40
2018-08-30T19:00:27.117Z,0.53
2018-08-30T19:02:55.698Z,0.77
2018-08-30T19:05:24.274Z,1.03
2018-08-30T19:07:52.874Z,0.60
2018-08-30T19:10:21.406Z,0.40
2018-08-30T19:12:49.972Z,0.67
2018-08-30T19:15:23.760Z,0.30
2018-08-30T19:17:57.586Z,0.53
2018-08-30T19:20:26.184Z,0.93
2018-08-30T19:22:54.729Z,0.77
2018-08-30T19:25:26.202Z,0.43
2018-08-30T19:27:54.886Z,0.23
2018-08-30T19:30:27.943Z,0.10
2018-08-30T19:32:57.564Z,0.87
2018-08-30T19:35:31.460Z,0.60
2018-08-30T19:37:59.984Z,0.40
2018-08-30T19:40:33.612Z,0.27
2018-08-30T19:43:02.177Z,0.27
2018-08-30T19:45:31.103Z,0.47
2018-08-30T19:47:59.633Z,0.30
2018-08-30T19:50:28.806Z,0.60
2018-08-30T19:52:57.394Z,0.53
2018-08-30T19:55:26.010Z,0.70
2018-08-30T19:57:54.606Z,0.47
2018-08-30T20:00:23.420Z,0.90
2018-08-30T20:02:52.106Z,0.50
2018-08-30T20:05:20.685Z,0.37
2018-08-30T20:07:49.228Z,0.20
2018-08-30T20:10:17.732Z,0.60
2018-08-30T20:12:46.303Z,0.40
2018-08-30T20:15:14.822Z,0.77
2018-08-30T20:17:43.381Z,0.77
2018-08-30T20:20:11.920Z,0.90
2018-08-30T20:22:40.533Z,0.70
2018-08-30T20:25:09.044Z,0.40
2018-08-30T20:27:37.584Z,0.57
2018-08-30T20:30:06.388Z,0.53
2018-08-30T20:32:34.918Z,0.50
2018-08-30T20:35:03.421Z,0.40
2018-08-30T20:37:31.941Z,0.33
2018-08-30T20:40:00.474Z,0.40
2018-08-30T20:42:29.185Z,0.70
2018-08-30T20:44:57.705Z,0.30
2018-08-30T20:47:26.195Z,0.47
2018-08-30T20:49:54.797Z,0.47
2018-08-30T20:52:23.354Z,0.50
2018-08-30T20:54:51.901Z,0.40
2018-08-30T20:57:20.407Z,0.60
2018-08-30T20:59:48.976Z,0.70
2018-08-30T21:02:17.474Z,0.87
2018-08-30T21:04:46.022Z,0.90
2018-08-30T21:07:14.510Z,0.90
2018-08-30T21:09:43.094Z,0.50
2018-08-30T21:12:11.610Z,0.60
2018-08-30T21:14:40.174Z,1.03
2018-08-30T21:17:08.702Z,0.80
2018-08-30T21:19:37.519Z,0.20
2018-08-30T21:22:06.138Z,0.60
2018-08-30T21:24:34.690Z,0.87
2018-08-30T21:27:03.243Z,0.40
2018-08-30T21:29:31.882Z,0.30
2018-08-30T21:32:00.437Z,0.50
2018-08-30T21:34:28.947Z,0.60
2018-08-30T21:36:57.659Z,0.67
2018-08-30T21:39:26.161Z,0.40
2018-08-30T21:41:54.713Z,0.40
2018-08-30T21:44:23.233Z,0.27
2018-08-30T21:46:51.806Z,0.30
2018-08-30T21:49:20.379Z,0.30
2018-08-30T21:51:48.990Z,0.90
2018-08-30T21:54:17.510Z,0.77
2018-08-30T21:56:46.023Z,0.30
2018-08-30T21:59:14.545Z,0.20
2018-08-30T22:01:44.181Z,0.30
2018-08-30T22:04:12.662Z,0.40
2018-08-30T22:06:41.225Z,0.60
2018-08-30T22:09:11.102Z,0.53
2018-08-30T22:11:39.763Z,0.93
2018-08-30T22:14:08.446Z,0.40
2018-08-30T22:16:37.034Z,0.70
2018-08-30T22:19:06.343Z,0.73
2018-08-30T22:21:34.814Z,0.30
2018-08-30T22:24:03.402Z,1.07
2018-08-30T22:26:31.970Z,0.90
2018-08-30T22:29:00.549Z,0.90
2018-08-30T22:31:29.110Z,0.40
2018-08-30T22:33:57.663Z,0.47
2018-08-30T22:36:26.138Z,1.00
2018-08-30T22:38:54.738Z,0.80
2018-08-30T22:41:23.227Z,0.30
2018-08-30T22:43:51.758Z,0.40
2018-08-30T22:46:20.288Z,0.60
2018-08-30T22:48:48.852Z,0.53
2018-08-30T22:51:17.348Z,0.63
2018-08-30T22:53:45.938Z,0.43
2018-08-30T22:56:14.445Z,1.17
2018-08-30T22:58:43.021Z,0.80
2018-08-30T23:01:11.506Z,0.80
2018-08-30T23:03:40.034Z,0.47
2018-08-30T23:06:08.509Z,0.37
2018-08-30T23:08:37.113Z,0.80
2018-08-30T23:11:05.660Z,0.30
2018-08-30T23:13:34.142Z,0.83
2018-08-30T23:16:02.918Z,0.63
2018-08-30T23:18:31.422Z,0.30
2018-08-30T23:20:59.969Z,0.83
2018-08-30T23:23:28.488Z,0.50
2018-08-30T23:25:57.026Z,0.30
2018-08-30T23:28:25.541Z,0.50
2018-08-30T23:30:54.115Z,0.50
2018-08-30T23:33:22.602Z,0.60
2018-08-30T23:35:51.136Z,0.30
2018-08-30T23:38:19.663Z,0.30
2018-08-30T23:40:48.228Z,0.83
2018-08-30T23:43:16.761Z,0.30
2018-08-30T23:45:45.283Z,1.20
2018-08-30T23:48:13.799Z,1.23
2018-08-30T23:50:42.347Z,0.57
2018-08-30T23:53:10.816Z,0.30
2018-08-30T23:55:39.335Z,0.40
2018-08-30T23:58:18.983Z,0.30
